sensor_id;sensor_type;location;lat;lon;timestamp;P1;durP1;ratioP1;P2;durP2;ratioP2
38089;SDS011;23904;52.322;10.232;2023-10-19T00:00:13;36.55;;;23.08;;
38089;SDS011;23904;52.322;10.232;2023-10-19T00:02:48;33.08;;;20.88;;
38089;SDS011;23904;52.322;10.232;2023-10-19T00:05:17;31.50;;;20.65;;
38089;SDS011;23904;52.322;10.232;2023-10-19T00:07:44;33.03;;;20.05;;
38089;SDS011;23904;52.322;10.232;2023-10-19T00:10:11;33.53;;;21.17;;
38089;SDS011;23904;52.322;10.232;2023-10-19T00:12:41;33.45;;;20.90;;
38089;SDS011;23904;52.322;10.232;2023-10-19T00:15:09;32.88;;;20.05;;
38089;SDS011;23904;52.322;10.232;2023-10-19T00:17:36;32.80;;;21.25;;
38089;SDS011;23904;52.322;10.232;2023-10-19T00:20:04;33.55;;;20.73;;
38089;SDS011;23904;52.322;10.232;2023-10-19T00:22:54;32.47;;;20.67;;
38089;SDS011;23904;52.322;10.232;2023-10-19T00:25:22;33.88;;;20.83;;
38089;SDS011;23904;52.322;10.232;2023-10-19T00:27:48;36.60;;;21.92;;
38089;SDS011;23904;52.322;10.232;2023-10-19T00:30:14;28.33;;;19.27;;
38089;SDS011;23904;52.322;10.232;2023-10-19T00:32:43;27.33;;;18.92;;
38089;SDS011;23904;52.322;10.232;2023-10-19T00:35:11;34.80;;;20.13;;
38089;SDS011;23904;52.322;10.232;2023-10-19T00:37:53;27.75;;;19.02;;
38089;SDS011;23904;52.322;10.232;2023-10-19T00:40:22;43.15;;;23.23;;
38089;SDS011;23904;52.322;10.232;2023-10-19T00:43:03;34.15;;;20.73;;
38089;SDS011;23904;52.322;10.232;2023-10-19T00:45:35;37.20;;;20.77;;
38089;SDS011;23904;52.322;10.232;2023-10-19T00:48:05;38.78;;;20.90;;
38089;SDS011;23904;52.322;10.232;2023-10-19T00:50:33;40.05;;;19.98;;
38089;SDS011;23904;52.322;10.232;2023-10-19T00:53:00;35.00;;;22.00;;
38089;SDS011;23904;52.322;10.232;2023-10-19T00:55:29;39.05;;;20.88;;
38089;SDS011;23904;52.322;10.232;2023-10-19T00:57:57;33.90;;;19.75;;
38089;SDS011;23904;52.322;10.232;2023-10-19T01:00:22;30.88;;;18.65;;
38089;SDS011;23904;52.322;10.232;2023-10-19T01:02:59;27.35;;;17.55;;
38089;SDS011;23904;52.322;10.232;2023-10-19T01:05:26;29.52;;;18.42;;
38089;SDS011;23904;52.322;10.232;2023-10-19T01:08:00;34.47;;;19.63;;
38089;SDS011;23904;52.322;10.232;2023-10-19T01:10:28;33.00;;;18.80;;
38089;SDS011;23904;52.322;10.232;2023-10-19T01:12:56;27.42;;;18.65;;
38089;SDS011;23904;52.322;10.232;2023-10-19T01:15:24;28.80;;;20.63;;
38089;SDS011;23904;52.322;10.232;2023-10-19T01:17:52;26.70;;;17.92;;
38089;SDS011;23904;52.322;10.232;2023-10-19T01:20:22;28.65;;;20.13;;
38089;SDS011;23904;52.322;10.232;2023-10-19T01:23:08;30.27;;;19.95;;
38089;SDS011;23904;52.322;10.232;2023-10-19T01:28:23;31.70;;;21.15;;
38089;SDS011;23904;52.322;10.232;2023-10-19T01:31:06;34.45;;;21.80;;
38089;SDS011;23904;52.322;10.232;2023-10-19T01:33:55;32.33;;;22.42;;
38089;SDS011;23904;52.322;10.232;2023-10-19T01:36:23;37.90;;;21.30;;
38089;SDS011;23904;52.322;10.232;2023-10-19T01:38:49;35.65;;;21.48;;
38089;SDS011;23904;52.322;10.232;2023-10-19T01:41:26;37.15;;;24.05;;
38089;SDS011;23904;52.322;10.232;2023-10-19T01:43:55;28.95;;;21.55;;
38089;SDS011;23904;52.322;10.232;2023-10-19T01:46:29;36.60;;;24.40;;
38089;SDS011;23904;52.322;10.232;2023-10-19T01:48:58;35.38;;;24.48;;
38089;SDS011;23904;52.322;10.232;2023-10-19T01:51:26;35.92;;;23.83;;
38089;SDS011;23904;52.322;10.232;2023-10-19T01:53:53;36.17;;;24.17;;
38089;SDS011;23904;52.322;10.232;2023-10-19T01:56:23;39.13;;;25.08;;
38089;SDS011;23904;52.322;10.232;2023-10-19T01:58:50;36.15;;;25.33;;
38089;SDS011;23904;52.322;10.232;2023-10-19T02:01:26;43.20;;;28.25;;
38089;SDS011;23904;52.322;10.232;2023-10-19T02:03:52;42.53;;;28.00;;
38089;SDS011;23904;52.322;10.232;2023-10-19T02:06:23;38.78;;;27.42;;
38089;SDS011;23904;52.322;10.232;2023-10-19T02:09:00;40.30;;;27.50;;
38089;SDS011;23904;52.322;10.232;2023-10-19T02:11:34;43.88;;;28.90;;
38089;SDS011;23904;52.322;10.232;2023-10-19T02:14:03;45.33;;;29.85;;
38089;SDS011;23904;52.322;10.232;2023-10-19T02:16:37;45.60;;;29.33;;
38089;SDS011;23904;52.322;10.232;2023-10-19T02:19:03;46.10;;;28.67;;
38089;SDS011;23904;52.322;10.232;2023-10-19T02:21:28;44.35;;;28.63;;
38089;SDS011;23904;52.322;10.232;2023-10-19T02:23:55;41.42;;;28.40;;
38089;SDS011;23904;52.322;10.232;2023-10-19T02:26:22;39.70;;;27.33;;
38089;SDS011;23904;52.322;10.232;2023-10-19T02:28:52;47.58;;;29.92;;
38089;SDS011;23904;52.322;10.232;2023-10-19T02:31:18;42.70;;;28.90;;
38089;SDS011;23904;52.322;10.232;2023-10-19T02:33:50;50.13;;;30.30;;
38089;SDS011;23904;52.322;10.232;2023-10-19T02:36:24;49.10;;;30.85;;
38089;SDS011;23904;52.322;10.232;2023-10-19T02:38:55;47.63;;;30.08;;
38089;SDS011;23904;52.322;10.232;2023-10-19T02:41:24;48.35;;;31.33;;
38089;SDS011;23904;52.322;10.232;2023-10-19T02:43:52;47.15;;;30.60;;
38089;SDS011;23904;52.322;10.232;2023-10-19T02:46:34;46.35;;;29.73;;
38089;SDS011;23904;52.322;10.232;2023-10-19T02:49:03;48.08;;;31.00;;
38089;SDS011;23904;52.322;10.232;2023-10-19T02:51:36;44.65;;;29.25;;
38089;SDS011;23904;52.322;10.232;2023-10-19T02:54:04;42.22;;;27.50;;
38089;SDS011;23904;52.322;10.232;2023-10-19T03:03:59;56.35;;;34.97;;
38089;SDS011;23904;52.322;10.232;2023-10-19T03:06:27;64.45;;;37.50;;
38089;SDS011;23904;52.322;10.232;2023-10-19T03:08:58;66.28;;;37.80;;
38089;SDS011;23904;52.322;10.232;2023-10-19T03:11:29;57.47;;;37.22;;
38089;SDS011;23904;52.322;10.232;2023-10-19T03:13:59;60.65;;;36.78;;
38089;SDS011;23904;52.322;10.232;2023-10-19T03:16:26;55.65;;;38.05;;
38089;SDS011;23904;52.322;10.232;2023-10-19T03:18:55;64.53;;;38.80;;
38089;SDS011;23904;52.322;10.232;2023-10-19T03:21:21;60.95;;;38.13;;
38089;SDS011;23904;52.322;10.232;2023-10-19T03:23:52;57.58;;;38.70;;
38089;SDS011;23904;52.322;10.232;2023-10-19T03:26:19;55.28;;;34.75;;
38089;SDS011;23904;52.322;10.232;2023-10-19T03:29:01;59.25;;;36.90;;
38089;SDS011;23904;52.322;10.232;2023-10-19T03:31:32;49.85;;;34.00;;
38089;SDS011;23904;52.322;10.232;2023-10-19T03:34:02;55.95;;;32.85;;
38089;SDS011;23904;52.322;10.232;2023-10-19T03:36:30;53.50;;;34.53;;
38089;SDS011;23904;52.322;10.232;2023-10-19T03:38:57;51.22;;;34.60;;
38089;SDS011;23904;52.322;10.232;2023-10-19T03:41:32;56.63;;;35.08;;
38089;SDS011;23904;52.322;10.232;2023-10-19T03:44:00;57.03;;;36.20;;
38089;SDS011;23904;52.322;10.232;2023-10-19T03:46:28;56.85;;;38.67;;
38089;SDS011;23904;52.322;10.232;2023-10-19T03:48:56;58.90;;;36.50;;
38089;SDS011;23904;52.322;10.232;2023-10-19T03:51:29;61.38;;;36.78;;
38089;SDS011;23904;52.322;10.232;2023-10-19T03:54:04;56.78;;;36.97;;
38089;SDS011;23904;52.322;10.232;2023-10-19T03:56:48;56.97;;;36.47;;
38089;SDS011;23904;52.322;10.232;2023-10-19T03:59:15;59.50;;;35.17;;
38089;SDS011;23904;52.322;10.232;2023-10-19T04:01:42;54.22;;;34.85;;
38089;SDS011;23904;52.322;10.232;2023-10-19T04:04:08;57.03;;;34.53;;
38089;SDS011;23904;52.322;10.232;2023-10-19T04:06:35;57.15;;;37.42;;
38089;SDS011;23904;52.322;10.232;2023-10-19T04:09:02;53.13;;;33.58;;
38089;SDS011;23904;52.322;10.232;2023-10-19T04:11:34;51.78;;;34.63;;
38089;SDS011;23904;52.322;10.232;2023-10-19T04:14:13;56.28;;;33.88;;
38089;SDS011;23904;52.322;10.232;2023-10-19T04:16:42;53.72;;;35.20;;
38089;SDS011;23904;52.322;10.232;2023-10-19T04:19:08;53.97;;;35.53;;
38089;SDS011;23904;52.322;10.232;2023-10-19T04:21:39;56.83;;;32.70;;
38089;SDS011;23904;52.322;10.232;2023-10-19T04:24:09;57.28;;;34.35;;
38089;SDS011;23904;52.322;10.232;2023-10-19T04:26:35;53.25;;;33.97;;
38089;SDS011;23904;52.322;10.232;2023-10-19T04:29:02;55.05;;;34.00;;
38089;SDS011;23904;52.322;10.232;2023-10-19T04:31:35;53.00;;;34.05;;
38089;SDS011;23904;52.322;10.232;2023-10-19T04:34:03;51.72;;;34.50;;
38089;SDS011;23904;52.322;10.232;2023-10-19T04:36:32;50.78;;;34.67;;
38089;SDS011;23904;52.322;10.232;2023-10-19T04:39:01;51.10;;;33.85;;
38089;SDS011;23904;52.322;10.232;2023-10-19T04:41:27;50.55;;;33.47;;
38089;SDS011;23904;52.322;10.232;2023-10-19T04:43:53;55.72;;;35.00;;
38089;SDS011;23904;52.322;10.232;2023-10-19T04:46:19;51.15;;;32.58;;
38089;SDS011;23904;52.322;10.232;2023-10-19T04:48:46;49.70;;;34.08;;
38089;SDS011;23904;52.322;10.232;2023-10-19T04:51:11;52.53;;;33.72;;
38089;SDS011;23904;52.322;10.232;2023-10-19T04:53:37;53.92;;;34.05;;
38089;SDS011;23904;52.322;10.232;2023-10-19T04:56:06;52.78;;;33.13;;
38089;SDS011;23904;52.322;10.232;2023-10-19T04:58:33;57.90;;;35.90;;
38089;SDS011;23904;52.322;10.232;2023-10-19T05:01:00;57.05;;;34.53;;
38089;SDS011;23904;52.322;10.232;2023-10-19T05:03:28;48.90;;;33.55;;
38089;SDS011;23904;52.322;10.232;2023-10-19T05:05:55;54.13;;;34.42;;
38089;SDS011;23904;52.322;10.232;2023-10-19T05:08:21;53.83;;;33.88;;
38089;SDS011;23904;52.322;10.232;2023-10-19T05:10:50;53.17;;;32.58;;
38089;SDS011;23904;52.322;10.232;2023-10-19T05:13:20;51.38;;;33.33;;
38089;SDS011;23904;52.322;10.232;2023-10-19T05:15:48;50.70;;;33.97;;
38089;SDS011;23904;52.322;10.232;2023-10-19T05:18:13;50.13;;;32.22;;
38089;SDS011;23904;52.322;10.232;2023-10-19T05:20:39;52.67;;;33.47;;
38089;SDS011;23904;52.322;10.232;2023-10-19T05:23:06;53.30;;;32.75;;
38089;SDS011;23904;52.322;10.232;2023-10-19T05:25:33;52.60;;;33.45;;
38089;SDS011;23904;52.322;10.232;2023-10-19T05:28:02;45.63;;;30.67;;
38089;SDS011;23904;52.322;10.232;2023-10-19T05:30:32;48.72;;;33.00;;
38089;SDS011;23904;52.322;10.232;2023-10-19T05:33:00;49.47;;;32.40;;
38089;SDS011;23904;52.322;10.232;2023-10-19T05:35:28;49.70;;;31.08;;
38089;SDS011;23904;52.322;10.232;2023-10-19T05:37:55;43.38;;;31.08;;
38089;SDS011;23904;52.322;10.232;2023-10-19T05:40:22;49.08;;;33.67;;
38089;SDS011;23904;52.322;10.232;2023-10-19T05:42:54;45.95;;;31.95;;
38089;SDS011;23904;52.322;10.232;2023-10-19T05:45:23;46.70;;;31.27;;
38089;SDS011;23904;52.322;10.232;2023-10-19T05:47:49;44.17;;;30.75;;
38089;SDS011;23904;52.322;10.232;2023-10-19T05:50:15;49.38;;;31.58;;
38089;SDS011;23904;52.322;10.232;2023-10-19T05:52:41;45.63;;;32.17;;
38089;SDS011;23904;52.322;10.232;2023-10-19T05:55:08;43.65;;;30.83;;
38089;SDS011;23904;52.322;10.232;2023-10-19T05:57:38;47.05;;;31.80;;
38089;SDS011;23904;52.322;10.232;2023-10-19T06:00:07;45.15;;;31.15;;
38089;SDS011;23904;52.322;10.232;2023-10-19T06:02:38;43.45;;;31.70;;
38089;SDS011;23904;52.322;10.232;2023-10-19T06:05:14;46.72;;;30.90;;
38089;SDS011;23904;52.322;10.232;2023-10-19T06:07:41;45.42;;;32.15;;
38089;SDS011;23904;52.322;10.232;2023-10-19T06:10:11;49.67;;;31.45;;
38089;SDS011;23904;52.322;10.232;2023-10-19T06:12:45;49.40;;;30.83;;
38089;SDS011;23904;52.322;10.232;2023-10-19T06:15:16;51.95;;;31.73;;
38089;SDS011;23904;52.322;10.232;2023-10-19T06:17:45;47.83;;;29.92;;
38089;SDS011;23904;52.322;10.232;2023-10-19T06:20:13;49.33;;;31.50;;
38089;SDS011;23904;52.322;10.232;2023-10-19T06:22:47;44.95;;;30.95;;
38089;SDS011;23904;52.322;10.232;2023-10-19T06:25:19;44.25;;;29.48;;
38089;SDS011;23904;52.322;10.232;2023-10-19T06:27:48;45.08;;;31.20;;
38089;SDS011;23904;52.322;10.232;2023-10-19T06:30:15;41.92;;;27.55;;
38089;SDS011;23904;52.322;10.232;2023-10-19T06:32:44;43.00;;;29.58;;
38089;SDS011;23904;52.322;10.232;2023-10-19T06:35:12;40.80;;;27.88;;
38089;SDS011;23904;52.322;10.232;2023-10-19T06:37:38;40.35;;;28.13;;
38089;SDS011;23904;52.322;10.232;2023-10-19T06:40:05;38.85;;;26.00;;
38089;SDS011;23904;52.322;10.232;2023-10-19T06:42:31;37.65;;;25.50;;
38089;SDS011;23904;52.322;10.232;2023-10-19T06:44:57;35.03;;;25.40;;
38089;SDS011;23904;52.322;10.232;2023-10-19T06:47:23;37.78;;;26.50;;
38089;SDS011;23904;52.322;10.232;2023-10-19T06:49:49;40.72;;;26.90;;
38089;SDS011;23904;52.322;10.232;2023-10-19T06:52:15;43.13;;;27.67;;
38089;SDS011;23904;52.322;10.232;2023-10-19T06:54:41;37.78;;;27.35;;
38089;SDS011;23904;52.322;10.232;2023-10-19T06:57:07;30.67;;;21.52;;
38089;SDS011;23904;52.322;10.232;2023-10-19T06:59:33;36.30;;;23.88;;
38089;SDS011;23904;52.322;10.232;2023-10-19T07:02:02;36.60;;;23.23;;
38089;SDS011;23904;52.322;10.232;2023-10-19T07:04:28;38.15;;;26.70;;
38089;SDS011;23904;52.322;10.232;2023-10-19T07:06:54;41.03;;;25.15;;
38089;SDS011;23904;52.322;10.232;2023-10-19T07:09:20;36.78;;;24.45;;
38089;SDS011;23904;52.322;10.232;2023-10-19T07:11:46;33.60;;;23.55;;
38089;SDS011;23904;52.322;10.232;2023-10-19T07:14:12;30.90;;;22.17;;
38089;SDS011;23904;52.322;10.232;2023-10-19T07:16:39;28.33;;;20.27;;
38089;SDS011;23904;52.322;10.232;2023-10-19T07:19:05;31.35;;;23.27;;
38089;SDS011;23904;52.322;10.232;2023-10-19T07:21:31;32.03;;;22.83;;
38089;SDS011;23904;52.322;10.232;2023-10-19T07:24:00;30.92;;;21.70;;
38089;SDS011;23904;52.322;10.232;2023-10-19T07:26:30;37.95;;;21.73;;
38089;SDS011;23904;52.322;10.232;2023-10-19T07:28:58;32.42;;;21.92;;
38089;SDS011;23904;52.322;10.232;2023-10-19T07:31:25;32.13;;;22.80;;
38089;SDS011;23904;52.322;10.232;2023-10-19T07:33:52;31.13;;;22.02;;
38089;SDS011;23904;52.322;10.232;2023-10-19T07:36:22;29.30;;;20.20;;
38089;SDS011;23904;52.322;10.232;2023-10-19T07:38:49;32.38;;;22.08;;
38089;SDS011;23904;52.322;10.232;2023-10-19T07:41:16;32.38;;;24.13;;
38089;SDS011;23904;52.322;10.232;2023-10-19T07:43:42;33.80;;;21.83;;
38089;SDS011;23904;52.322;10.232;2023-10-19T07:46:11;28.10;;;20.67;;
38089;SDS011;23904;52.322;10.232;2023-10-19T07:48:37;27.35;;;18.17;;
38089;SDS011;23904;52.322;10.232;2023-10-19T07:51:03;27.05;;;18.50;;
38089;SDS011;23904;52.322;10.232;2023-10-19T07:53:29;27.67;;;19.98;;
38089;SDS011;23904;52.322;10.232;2023-10-19T07:55:55;25.35;;;18.90;;
38089;SDS011;23904;52.322;10.232;2023-10-19T07:58:22;24.77;;;18.17;;
38089;SDS011;23904;52.322;10.232;2023-10-19T08:00:48;25.88;;;19.27;;
38089;SDS011;23904;52.322;10.232;2023-10-19T08:03:14;23.77;;;17.02;;
38089;SDS011;23904;52.322;10.232;2023-10-19T08:05:41;23.25;;;16.63;;
38089;SDS011;23904;52.322;10.232;2023-10-19T08:08:07;20.05;;;14.80;;
38089;SDS011;23904;52.322;10.232;2023-10-19T08:10:33;18.75;;;13.77;;
38089;SDS011;23904;52.322;10.232;2023-10-19T08:13:00;19.75;;;14.77;;
38089;SDS011;23904;52.322;10.232;2023-10-19T08:15:26;20.95;;;15.13;;
38089;SDS011;23904;52.322;10.232;2023-10-19T08:17:53;20.60;;;13.98;;
38089;SDS011;23904;52.322;10.232;2023-10-19T08:20:19;21.77;;;16.58;;
38089;SDS011;23904;52.322;10.232;2023-10-19T08:22:51;20.98;;;15.77;;
38089;SDS011;23904;52.322;10.232;2023-10-19T08:25:19;20.38;;;14.55;;
38089;SDS011;23904;52.322;10.232;2023-10-19T08:27:45;18.38;;;14.00;;
38089;SDS011;23904;52.322;10.232;2023-10-19T08:30:18;16.08;;;11.95;;
38089;SDS011;23904;52.322;10.232;2023-10-19T08:32:46;16.92;;;12.52;;
38089;SDS011;23904;52.322;10.232;2023-10-19T08:35:13;18.85;;;12.57;;
38089;SDS011;23904;52.322;10.232;2023-10-19T08:37:41;17.60;;;11.85;;
38089;SDS011;23904;52.322;10.232;2023-10-19T08:40:07;15.27;;;10.55;;
38089;SDS011;23904;52.322;10.232;2023-10-19T08:42:40;13.85;;;10.05;;
38089;SDS011;23904;52.322;10.232;2023-10-19T08:45:07;12.70;;;9.68;;
38089;SDS011;23904;52.322;10.232;2023-10-19T08:47:35;15.35;;;9.48;;
38089;SDS011;23904;52.322;10.232;2023-10-19T08:50:04;13.27;;;9.30;;
38089;SDS011;23904;52.322;10.232;2023-10-19T08:52:30;10.27;;;6.90;;
38089;SDS011;23904;52.322;10.232;2023-10-19T08:54:57;7.07;;;5.80;;
38089;SDS011;23904;52.322;10.232;2023-10-19T08:57:23;14.27;;;7.13;;
38089;SDS011;23904;52.322;10.232;2023-10-19T08:59:49;8.60;;;6.60;;
38089;SDS011;23904;52.322;10.232;2023-10-19T09:02:14;8.45;;;6.70;;
38089;SDS011;23904;52.322;10.232;2023-10-19T09:04:47;8.25;;;7.15;;
38089;SDS011;23904;52.322;10.232;2023-10-19T09:07:13;9.57;;;7.28;;
38089;SDS011;23904;52.322;10.232;2023-10-19T09:09:39;10.27;;;7.88;;
38089;SDS011;23904;52.322;10.232;2023-10-19T09:12:09;10.02;;;7.70;;
38089;SDS011;23904;52.322;10.232;2023-10-19T09:14:35;10.50;;;7.82;;
38089;SDS011;23904;52.322;10.232;2023-10-19T09:17:06;10.43;;;8.57;;
38089;SDS011;23904;52.322;10.232;2023-10-19T09:19:35;10.60;;;8.85;;
38089;SDS011;23904;52.322;10.232;2023-10-19T09:22:07;11.43;;;8.65;;
38089;SDS011;23904;52.322;10.232;2023-10-19T09:24:41;10.50;;;8.52;;
38089;SDS011;23904;52.322;10.232;2023-10-19T09:27:08;16.25;;;9.18;;
38089;SDS011;23904;52.322;10.232;2023-10-19T09:29:34;11.57;;;8.75;;
38089;SDS011;23904;52.322;10.232;2023-10-19T09:31:59;11.18;;;8.40;;
38089;SDS011;23904;52.322;10.232;2023-10-19T09:34:29;11.60;;;8.82;;
38089;SDS011;23904;52.322;10.232;2023-10-19T09:37:01;11.30;;;8.95;;
38089;SDS011;23904;52.322;10.232;2023-10-19T09:39:32;10.73;;;8.50;;
38089;SDS011;23904;52.322;10.232;2023-10-19T09:42:01;12.02;;;9.00;;
38089;SDS011;23904;52.322;10.232;2023-10-19T09:44:39;12.15;;;9.77;;
38089;SDS011;23904;52.322;10.232;2023-10-19T09:47:11;7.25;;;6.10;;
38089;SDS011;23904;52.322;10.232;2023-10-19T09:49:45;13.32;;;8.88;;
38089;SDS011;23904;52.322;10.232;2023-10-19T09:52:10;11.13;;;8.57;;
38089;SDS011;23904;52.322;10.232;2023-10-19T09:54:45;9.80;;;8.38;;
38089;SDS011;23904;52.322;10.232;2023-10-19T09:57:31;9.98;;;7.97;;
38089;SDS011;23904;52.322;10.232;2023-10-19T10:00:48;12.30;;;9.10;;
38089;SDS011;23904;52.322;10.232;2023-10-19T10:06:16;12.57;;;8.20;;
38089;SDS011;23904;52.322;10.232;2023-10-19T10:08:55;9.95;;;7.90;;
38089;SDS011;23904;52.322;10.232;2023-10-19T10:11:25;10.20;;;8.48;;
38089;SDS011;23904;52.322;10.232;2023-10-19T10:13:52;20.65;;;10.20;;
38089;SDS011;23904;52.322;10.232;2023-10-19T10:16:24;15.77;;;10.00;;
38089;SDS011;23904;52.322;10.232;2023-10-19T10:21:26;12.82;;;8.38;;
38089;SDS011;23904;52.322;10.232;2023-10-19T10:23:58;12.77;;;9.48;;
38089;SDS011;23904;52.322;10.232;2023-10-19T10:26:29;12.90;;;9.25;;
38089;SDS011;23904;52.322;10.232;2023-10-19T10:29:12;13.18;;;9.75;;
38089;SDS011;23904;52.322;10.232;2023-10-19T10:31:45;13.35;;;10.25;;
38089;SDS011;23904;52.322;10.232;2023-10-19T10:37:02;13.10;;;9.80;;
38089;SDS011;23904;52.322;10.232;2023-10-19T10:39:36;14.40;;;11.00;;
38089;SDS011;23904;52.322;10.232;2023-10-19T10:42:06;19.02;;;11.60;;
38089;SDS011;23904;52.322;10.232;2023-10-19T10:44:43;16.80;;;12.00;;
38089;SDS011;23904;52.322;10.232;2023-10-19T10:47:18;16.52;;;11.70;;
38089;SDS011;23904;52.322;10.232;2023-10-19T10:49:53;15.48;;;10.73;;
38089;SDS011;23904;52.322;10.232;2023-10-19T10:52:31;15.13;;;11.20;;
38089;SDS011;23904;52.322;10.232;2023-10-19T10:55:07;13.90;;;10.63;;
38089;SDS011;23904;52.322;10.232;2023-10-19T10:57:40;14.50;;;10.93;;
38089;SDS011;23904;52.322;10.232;2023-10-19T11:00:11;13.90;;;10.35;;
38089;SDS011;23904;52.322;10.232;2023-10-19T11:02:46;15.30;;;11.77;;
38089;SDS011;23904;52.322;10.232;2023-10-19T11:05:14;15.43;;;11.45;;
38089;SDS011;23904;52.322;10.232;2023-10-19T11:10:38;15.00;;;11.45;;
38089;SDS011;23904;52.322;10.232;2023-10-19T11:13:07;15.40;;;11.60;;
38089;SDS011;23904;52.322;10.232;2023-10-19T11:15:38;14.98;;;11.25;;
38089;SDS011;23904;52.322;10.232;2023-10-19T11:21:09;14.88;;;11.35;;
38089;SDS011;23904;52.322;10.232;2023-10-19T11:26:10;14.38;;;11.68;;
38089;SDS011;23904;52.322;10.232;2023-10-19T11:28:38;15.95;;;12.07;;
38089;SDS011;23904;52.322;10.232;2023-10-19T11:31:18;16.88;;;12.55;;
38089;SDS011;23904;52.322;10.232;2023-10-19T11:33:48;17.08;;;12.88;;
38089;SDS011;23904;52.322;10.232;2023-10-19T11:36:18;15.30;;;12.63;;
38089;SDS011;23904;52.322;10.232;2023-10-19T11:38:46;17.55;;;14.02;;
38089;SDS011;23904;52.322;10.232;2023-10-19T11:41:14;17.38;;;12.55;;
38089;SDS011;23904;52.322;10.232;2023-10-19T11:43:41;18.58;;;13.50;;
38089;SDS011;23904;52.322;10.232;2023-10-19T11:46:09;18.17;;;13.50;;
38089;SDS011;23904;52.322;10.232;2023-10-19T11:48:37;16.90;;;13.85;;
38089;SDS011;23904;52.322;10.232;2023-10-19T11:51:04;15.48;;;13.43;;
38089;SDS011;23904;52.322;10.232;2023-10-19T11:53:34;16.73;;;13.23;;
38089;SDS011;23904;52.322;10.232;2023-10-19T11:56:02;18.65;;;13.70;;
38089;SDS011;23904;52.322;10.232;2023-10-19T11:58:35;16.63;;;13.70;;
38089;SDS011;23904;52.322;10.232;2023-10-19T12:01:02;19.02;;;15.05;;
38089;SDS011;23904;52.322;10.232;2023-10-19T12:03:33;17.92;;;15.02;;
38089;SDS011;23904;52.322;10.232;2023-10-19T12:06:02;19.13;;;14.35;;
38089;SDS011;23904;52.322;10.232;2023-10-19T12:08:31;18.45;;;15.73;;
38089;SDS011;23904;52.322;10.232;2023-10-19T12:11:00;19.40;;;14.05;;
38089;SDS011;23904;52.322;10.232;2023-10-19T12:13:28;23.15;;;15.75;;
38089;SDS011;23904;52.322;10.232;2023-10-19T12:15:56;21.08;;;15.20;;
38089;SDS011;23904;52.322;10.232;2023-10-19T12:18:22;21.38;;;17.00;;
38089;SDS011;23904;52.322;10.232;2023-10-19T12:20:51;23.30;;;17.30;;
38089;SDS011;23904;52.322;10.232;2023-10-19T12:23:21;20.98;;;16.70;;
38089;SDS011;23904;52.322;10.232;2023-10-19T12:25:48;31.10;;;19.92;;
38089;SDS011;23904;52.322;10.232;2023-10-19T12:28:14;22.77;;;17.52;;
38089;SDS011;23904;52.322;10.232;2023-10-19T12:30:41;23.35;;;18.40;;
38089;SDS011;23904;52.322;10.232;2023-10-19T12:33:06;27.33;;;19.70;;
38089;SDS011;23904;52.322;10.232;2023-10-19T12:35:36;22.30;;;17.77;;
38089;SDS011;23904;52.322;10.232;2023-10-19T12:40:44;27.48;;;18.42;;
38089;SDS011;23904;52.322;10.232;2023-10-19T12:43:13;28.42;;;20.30;;
38089;SDS011;23904;52.322;10.232;2023-10-19T12:45:40;25.13;;;19.80;;
38089;SDS011;23904;52.322;10.232;2023-10-19T12:48:06;28.75;;;21.67;;
38089;SDS011;23904;52.322;10.232;2023-10-19T12:50:36;30.73;;;20.23;;
38089;SDS011;23904;52.322;10.232;2023-10-19T12:53:03;25.50;;;18.85;;
38089;SDS011;23904;52.322;10.232;2023-10-19T12:55:29;27.80;;;20.83;;
38089;SDS011;23904;52.322;10.232;2023-10-19T12:57:56;28.90;;;21.30;;
38089;SDS011;23904;52.322;10.232;2023-10-19T13:00:22;29.88;;;20.83;;
38089;SDS011;23904;52.322;10.232;2023-10-19T13:02:49;30.65;;;20.80;;
38089;SDS011;23904;52.322;10.232;2023-10-19T13:05:15;29.42;;;21.33;;
38089;SDS011;23904;52.322;10.232;2023-10-19T13:07:44;30.48;;;22.20;;
38089;SDS011;23904;52.322;10.232;2023-10-19T13:10:10;31.52;;;23.02;;
38089;SDS011;23904;52.322;10.232;2023-10-19T13:12:38;33.60;;;23.48;;
38089;SDS011;23904;52.322;10.232;2023-10-19T13:15:04;36.08;;;25.90;;
38089;SDS011;23904;52.322;10.232;2023-10-19T13:17:37;35.35;;;23.40;;
38089;SDS011;23904;52.322;10.232;2023-10-19T13:20:08;36.17;;;24.75;;
38089;SDS011;23904;52.322;10.232;2023-10-19T13:22:43;43.70;;;26.63;;
38089;SDS011;23904;52.322;10.232;2023-10-19T13:25:10;39.13;;;24.88;;
38089;SDS011;23904;52.322;10.232;2023-10-19T13:27:41;34.65;;;24.52;;
38089;SDS011;23904;52.322;10.232;2023-10-19T13:30:11;42.60;;;25.35;;
38089;SDS011;23904;52.322;10.232;2023-10-19T13:32:43;37.47;;;25.08;;
38089;SDS011;23904;52.322;10.232;2023-10-19T13:35:08;39.35;;;25.80;;
38089;SDS011;23904;52.322;10.232;2023-10-19T13:37:34;34.50;;;23.80;;
38089;SDS011;23904;52.322;10.232;2023-10-19T13:39:59;35.10;;;24.77;;
38089;SDS011;23904;52.322;10.232;2023-10-19T13:42:25;34.65;;;24.88;;
38089;SDS011;23904;52.322;10.232;2023-10-19T13:44:51;37.40;;;25.73;;
38089;SDS011;23904;52.322;10.232;2023-10-19T13:47:16;33.55;;;23.77;;
38089;SDS011;23904;52.322;10.232;2023-10-19T13:49:42;38.75;;;24.45;;
38089;SDS011;23904;52.322;10.232;2023-10-19T13:52:07;36.30;;;23.63;;
38089;SDS011;23904;52.322;10.232;2023-10-19T13:54:36;39.33;;;25.17;;
38089;SDS011;23904;52.322;10.232;2023-10-19T13:57:02;42.50;;;26.63;;
38089;SDS011;23904;52.322;10.232;2023-10-19T13:59:28;34.72;;;23.48;;
38089;SDS011;23904;52.322;10.232;2023-10-19T14:01:54;39.22;;;24.88;;
38089;SDS011;23904;52.322;10.232;2023-10-19T14:04:20;43.03;;;25.88;;
38089;SDS011;23904;52.322;10.232;2023-10-19T14:06:45;40.88;;;25.65;;
38089;SDS011;23904;52.322;10.232;2023-10-19T14:09:14;42.20;;;27.55;;
38089;SDS011;23904;52.322;10.232;2023-10-19T14:11:42;38.90;;;25.77;;
38089;SDS011;23904;52.322;10.232;2023-10-19T14:14:07;44.83;;;27.23;;
38089;SDS011;23904;52.322;10.232;2023-10-19T14:16:35;44.17;;;26.73;;
38089;SDS011;23904;52.322;10.232;2023-10-19T14:19:01;44.65;;;26.70;;
38089;SDS011;23904;52.322;10.232;2023-10-19T14:21:29;43.95;;;28.60;;
38089;SDS011;23904;52.322;10.232;2023-10-19T14:23:54;40.35;;;25.13;;
38089;SDS011;23904;52.322;10.232;2023-10-19T14:26:20;42.90;;;25.73;;
38089;SDS011;23904;52.322;10.232;2023-10-19T14:28:46;39.50;;;26.73;;
38089;SDS011;23904;52.322;10.232;2023-10-19T14:31:12;43.42;;;28.02;;
38089;SDS011;23904;52.322;10.232;2023-10-19T14:33:38;44.20;;;28.55;;
38089;SDS011;23904;52.322;10.232;2023-10-19T14:36:04;50.42;;;32.92;;
38089;SDS011;23904;52.322;10.232;2023-10-19T14:38:30;48.60;;;30.95;;
38089;SDS011;23904;52.322;10.232;2023-10-19T14:40:56;54.47;;;31.85;;
38089;SDS011;23904;52.322;10.232;2023-10-19T14:43:22;52.33;;;33.50;;
38089;SDS011;23904;52.322;10.232;2023-10-19T14:45:50;52.53;;;32.08;;
38089;SDS011;23904;52.322;10.232;2023-10-19T14:48:16;53.80;;;33.15;;
38089;SDS011;23904;52.322;10.232;2023-10-19T14:50:44;61.33;;;34.65;;